Time;durP1;ratioP1;P1;durP2;ratioP2;P2;SDS_P1;SDS_P2;PMS_P1;PMS_P2;Temp;Humidity;BMP_temperature;BMP_pressure;BME280_temperature;BME280_humidity;BME280_pressure;Samples;Min_cycle;Max_cycle;Signal;HPM_P1;HPM_P2
2022/04/30 00:02:07;;;;;;;13.20;5.53;;;5.70;85.90;;;;;;4831847;29;20204;-83
2022/04/30 00:04:39;;;;;;;10.03;5.47;;;5.70;85.70;;;;;;4845103;29;20182;-84
2022/04/30 00:07:05;;;;;;;10.53;5.50;;;5.70;85.80;;;;;;4829384;29;20219;-84
2022/04/30 00:09:31;;;;;;;11.07;5.53;;;5.70;85.70;;;;;;4845264;29;20203;-83
2022/04/30 00:11:57;;;;;;;14.27;5.40;;;5.60;85.30;;;;;;4845010;29;20204;-83
2022/04/30 00:14:23;;;;;;;13.97;5.33;;;5.60;85.20;;;;;;4845082;29;20166;-85
2022/04/30 00:16:49;;;;;;;16.30;6.03;;;5.50;85.10;;;;;;4844621;29;20193;-83
2022/04/30 00:19:15;;;;;;;14.67;5.37;;;5.50;85.20;;;;;;4845800;29;20204;-83
2022/04/30 00:21:41;;;;;;;13.43;5.80;;;5.50;85.60;;;;;;4845187;29;20186;-83
2022/04/30 00:24:07;;;;;;;13.70;6.10;;;5.50;86.10;;;;;;4844716;29;20199;-83
2022/04/30 00:26:32;;;;;;;11.20;6.07;;;5.40;86.40;;;;;;4828124;29;20199;-84
2022/04/30 00:28:58;;;;;;;11.67;5.90;;;5.40;86.60;;;;;;4844686;29;20213;-83
2022/04/30 00:31:26;;;;;;;10.23;5.73;;;5.40;86.80;;;;;;4844173;29;20253;-83
2022/04/30 00:33:51;;;;;;;14.87;6.20;;;5.30;87.10;;;;;;4843963;29;20212;-83
2022/04/30 00:36:17;;;;;;;12.87;6.30;;;5.30;87.20;;;;;;4844090;29;20183;-83
2022/04/30 00:38:42;;;;;;;12.43;5.87;;;5.30;87.50;;;;;;4843464;29;20220;-84
2022/04/30 00:41:08;;;;;;;15.27;7.63;;;5.30;87.50;;;;;;4827073;29;20274;-84
2022/04/30 00:43:54;;;;;;;14.80;7.10;;;5.20;87.70;;;;;;4832140;29;20205;-84
2022/04/30 00:46:22;;;;;;;13.50;6.33;;;5.20;87.90;;;;;;4846297;29;20175;-83
2022/04/30 00:48:48;;;;;;;13.47;6.73;;;5.20;87.90;;;;;;4846260;29;20210;-83
2022/04/30 00:51:17;;;;;;;16.83;6.60;;;5.10;87.90;;;;;;4846859;29;20205;-83
2022/04/30 00:53:51;;;;;;;10.97;6.03;;;5.10;87.90;;;;;;4846110;29;20661;-83
2022/04/30 00:56:32;;;;;;;13.97;5.83;;;5.10;87.90;;;;;;4847387;29;20181;-84
2022/04/30 00:59:02;;;;;;;11.50;5.60;;;5.20;88.00;;;;;;4845383;29;20234;-84
2022/04/30 01:01:32;;;;;;;8.10;5.27;;;5.20;87.90;;;;;;4844727;29;20174;-84
2022/04/30 01:03:57;;;;;;;8.90;5.20;;;5.20;87.70;;;;;;4828263;29;20202;-84
2022/04/30 01:06:46;;;;;;;12.93;6.27;;;5.30;87.50;;;;;;4844316;29;20182;-84
2022/04/30 01:09:11;;;;;;;12.43;5.70;;;5.30;87.20;;;;;;4828798;29;20231;-84
2022/04/30 01:11:37;;;;;;;10.07;5.40;;;5.30;87.10;;;;;;4845006;29;20190;-84
2022/04/30 01:14:04;;;;;;;10.47;7.27;;;5.30;87.10;;;;;;4846236;29;20207;-83
2022/04/30 01:16:30;;;;;;;15.47;5.60;;;5.40;86.90;;;;;;4846551;29;20174;-84
2022/04/30 01:18:56;;;;;;;6.77;5.30;;;5.40;86.90;;;;;;4846733;29;20198;-84
2022/04/30 01:21:24;;;;;;;8.23;5.30;;;5.50;86.80;;;;;;4846576;29;20198;-83
2022/04/30 01:23:49;;;;;;;11.30;5.83;;;5.40;86.90;;;;;;4842773;29;20185;-84
2022/04/30 01:26:17;;;;;;;12.83;6.00;;;5.30;87.20;;;;;;4826801;29;20277;-85
2022/04/30 01:28:44;;;;;;;11.70;5.60;;;5.20;87.50;;;;;;4838454;29;20201;-84
2022/04/30 01:37:22;;;;;;;15.70;6.07;;;5.20;87.70;;;;;;4847408;29;20204;-84
2022/04/30 01:39:30;;;;;;;22.20;5.67;;;5.00;88.00;;;;;;4844488;29;20216;-84
2022/04/30 01:41:56;;;;;;;13.90;5.97;;;5.00;88.10;;;;;;4827303;29;20638;-86
2022/04/30 01:44:23;;;;;;;6.07;5.47;;;5.10;88.10;;;;;;4810770;29;20196;-86
2022/04/30 01:46:49;;;;;;;7.00;4.57;;;5.20;88.00;;;;;;4827241;29;20232;-86
2022/04/30 01:49:16;;;;;;;8.00;4.10;;;5.10;87.50;;;;;;4810773;29;20214;-85
2022/04/30 01:51:51;;;;;;;8.97;4.00;;;5.10;86.70;;;;;;4810312;29;20200;-87
2022/04/30 01:54:17;;;;;;;5.73;4.20;;;5.00;85.50;;;;;;4826561;29;20670;-86
2022/04/30 01:56:43;;;;;;;6.83;3.97;;;5.00;85.10;;;;;;4810512;29;20762;-87
2022/04/30 01:59:08;;;;;;;6.77;3.53;;;5.10;84.80;;;;;;4810596;29;20238;-87
2022/04/30 02:01:37;;;;;;;6.87;4.23;;;5.00;84.40;;;;;;4826622;29;20178;-86
2022/04/30 02:04:04;;;;;;;7.03;4.30;;;5.00;84.10;;;;;;4826875;29;20673;-87
2022/04/30 02:06:30;;;;;;;7.47;4.13;;;5.00;83.80;;;;;;4810606;29;20539;-87
2022/04/30 02:08:56;;;;;;;7.57;4.10;;;4.90;83.50;;;;;;4810240;29;20555;-87
2022/04/30 02:11:22;;;;;;;7.00;4.10;;;5.00;83.20;;;;;;4810272;29;20223;-86
2022/04/30 02:13:53;;;;;;;7.57;4.43;;;4.90;83.10;;;;;;4826617;29;20206;-86
2022/04/30 02:16:23;;;;;;;117.57;8.87;;;5.00;82.70;;;;;;4810203;29;20174;-87
2022/04/30 02:18:50;;;;;;;16.70;4.97;;;5.00;82.70;;;;;;4826346;29;20220;-87
2022/04/30 02:21:20;;;;;;;83.87;6.50;;;5.00;83.30;;;;;;4810038;29;20662;-86
2022/04/30 02:23:49;;;;;;;29.90;5.23;;;4.90;84.50;;;;;;4809968;29;20178;-87
2022/04/30 02:26:16;;;;;;;104.97;7.90;;;4.70;85.60;;;;;;4826335;29;20270;-87
2022/04/30 02:28:42;;;;;;;14.43;6.10;;;4.70;86.70;;;;;;4826162;29;20607;-87
2022/04/30 02:31:19;;;;;;;12.80;6.20;;;4.70;87.50;;;;;;4826256;29;20187;-87
2022/04/30 02:33:46;;;;;;;10.60;6.10;;;4.70;88.10;;;;;;4809955;29;20265;-87
2022/04/30 02:36:13;;;;;;;11.83;6.10;;;4.80;88.70;;;;;;4810109;29;20189;-87
2022/04/30 02:38:39;;;;;;;10.00;6.60;;;4.90;88.90;;;;;;4826636;29;20203;-87
2022/04/30 02:41:04;;;;;;;10.27;5.60;;;5.00;88.90;;;;;;4810243;29;20570;-87
2022/04/30 02:43:30;;;;;;;7.90;5.80;;;5.00;88.80;;;;;;4810318;29;20571;-87
2022/04/30 02:45:56;;;;;;;8.53;4.83;;;5.10;88.70;;;;;;4826649;29;20599;-88
2022/04/30 02:48:22;;;;;;;10.40;5.17;;;5.00;88.60;;;;;;4810342;29;20274;-87
2022/04/30 02:50:48;;;;;;;7.73;5.07;;;5.00;88.40;;;;;;4810136;29;20238;-87
2022/04/30 02:53:14;;;;;;;6.10;4.63;;;5.00;88.30;;;;;;4809954;29;20335;-87
2022/04/30 02:55:40;;;;;;;6.60;4.67;;;5.10;88.20;;;;;;4826813;29;20186;-86
2022/04/30 03:00:52;;;;;;;7.03;4.27;;;5.10;87.70;;;;;;4827271;29;20177;-87
2022/04/30 03:03:18;;;;;;;7.40;4.27;;;5.10;87.50;;;;;;4809620;29;20196;-87
2022/04/30 03:05:45;;;;;;;7.23;4.17;;;5.10;87.20;;;;;;4810016;29;20213;-87
2022/04/30 03:08:15;;;;;;;5.80;4.70;;;5.10;87.00;;;;;;4809285;29;20190;-87
2022/04/30 03:10:43;;;;;;;8.27;4.17;;;5.10;86.70;;;;;;4825685;29;20175;-87
2022/04/30 03:13:09;;;;;;;10.33;3.77;;;5.00;86.50;;;;;;4809304;29;20204;-87
2022/04/30 03:15:38;;;;;;;7.30;3.60;;;5.00;86.30;;;;;;4809333;29;20180;-87
2022/04/30 03:23:35;;;;;;;9.00;4.07;;;5.10;85.80;;;;;;4826071;29;20180;-87
2022/04/30 03:26:01;;;;;;;6.47;4.03;;;5.20;85.60;;;;;;4808814;29;20199;-87
2022/04/30 03:28:26;;;;;;;8.37;4.00;;;5.10;85.50;;;;;;4808966;29;20212;-87
2022/04/30 03:30:52;;;;;;;9.13;4.10;;;5.00;85.70;;;;;;4825309;29;20186;-87
2022/04/30 03:33:18;;;;;;;9.47;3.80;;;5.00;85.70;;;;;;4825350;29;20213;-87
2022/04/30 03:35:44;;;;;;;5.50;3.60;;;5.00;85.70;;;;;;4825304;29;20174;-87
2022/04/30 03:38:10;;;;;;;8.23;4.30;;;5.00;85.70;;;;;;4825500;29;20192;-86
2022/04/30 03:40:38;;;;;;;5.43;3.30;;;5.00;85.50;;;;;;4825130;29;20198;-87
2022/04/30 03:43:04;;;;;;;8.20;3.30;;;5.00;85.30;;;;;;4824933;29;20182;-87
2022/04/30 03:45:30;;;;;;;9.97;4.00;;;5.00;85.00;;;;;;4808684;29;20195;-87
2022/04/30 03:47:55;;;;;;;6.67;3.67;;;5.00;84.80;;;;;;4808392;29;20194;-86
2022/04/30 03:50:21;;;;;;;10.57;4.03;;;4.90;84.70;;;;;;4825019;29;20188;-87
2022/04/30 03:52:47;;;;;;;11.00;3.77;;;4.90;84.60;;;;;;4824985;29;20212;-88
2022/04/30 03:55:16;;;;;;;8.03;3.57;;;4.90;84.50;;;;;;4824899;29;20245;-87
2022/04/30 03:57:42;;;;;;;8.33;4.20;;;5.00;84.60;;;;;;4825025;29;20188;-87
2022/04/30 04:00:09;;;;;;;11.03;4.43;;;5.00;84.40;;;;;;4824854;29;20262;-87
2022/04/30 04:02:39;;;;;;;6.83;4.20;;;5.00;84.50;;;;;;4824913;29;20409;-87
2022/04/30 04:05:06;;;;;;;6.77;4.10;;;5.00;84.60;;;;;;4808414;29;20185;-87
2022/04/30 04:07:32;;;;;;;18.87;5.03;;;4.90;84.70;;;;;;4809062;29;20196;-87
2022/04/30 04:09:58;;;;;;;11.73;4.70;;;4.90;84.90;;;;;;4824956;29;20580;-87
2022/04/30 04:12:23;;;;;;;6.70;4.37;;;5.00;84.90;;;;;;4824799;29;20261;-87
2022/04/30 04:17:39;;;;;;;12.50;4.90;;;5.20;85.10;;;;;;4825276;29;20650;-87
2022/04/30 04:20:09;;;;;;;13.27;4.67;;;5.30;84.90;;;;;;4824830;29;20206;-87
2022/04/30 04:22:35;;;;;;;8.43;4.90;;;5.50;84.70;;;;;;4808563;29;20190;-87
2022/04/30 04:27:53;;;;;;;6.20;4.50;;;5.70;84.30;;;;;;4825663;29;20182;-87
2022/04/30 04:30:21;;;;;;;11.63;4.93;;;5.80;84.20;;;;;;4825152;29;20198;-87
2022/04/30 04:32:46;;;;;;;10.20;5.03;;;5.80;83.80;;;;;;4824758;29;20202;-87
2022/04/30 04:35:14;;;;;;;9.60;5.13;;;5.70;83.80;;;;;;4824621;29;20203;-87
2022/04/30 04:37:39;;;;;;;9.90;4.53;;;5.80;83.80;;;;;;4808110;29;20182;-87
2022/04/30 04:40:06;;;;;;;11.70;4.80;;;5.70;83.80;;;;;;4808062;29;20729;-88
2022/04/30 04:42:31;;;;;;;18.50;4.80;;;5.70;83.80;;;;;;4808300;29;20243;-87
2022/04/30 04:44:57;;;;;;;8.80;4.93;;;5.70;83.80;;;;;;4808435;29;20593;-87
2022/04/30 04:47:22;;;;;;;10.03;5.40;;;5.70;83.80;;;;;;4824736;29;20185;-87
2022/04/30 04:49:48;;;;;;;12.27;5.50;;;5.70;84.00;;;;;;4824714;29;20210;-86
2022/04/30 04:52:13;;;;;;;17.50;9.13;;;5.80;84.30;;;;;;4808458;29;20240;-87
2022/04/30 04:54:39;;;;;;;20.93;13.40;;;5.90;84.50;;;;;;4808268;29;20191;-88
2022/04/30 04:57:05;;;;;;;24.40;13.47;;;6.00;84.40;;;;;;4824764;29;20184;-87
2022/04/30 04:59:30;;;;;;;28.30;17.27;;;6.00;84.30;;;;;;4824711;29;20213;-87
2022/04/30 05:01:55;;;;;;;52.03;27.97;;;6.00;84.60;;;;;;4825033;29;20190;-87
2022/04/30 05:04:23;;;;;;;43.30;23.57;;;6.10;84.60;;;;;;4808313;29;20200;-87
2022/04/30 05:06:48;;;;;;;44.13;23.87;;;6.00;84.80;;;;;;4808435;29;20228;-87
2022/04/30 05:09:14;;;;;;;33.57;20.87;;;6.10;85.10;;;;;;4808176;29;20214;-87
2022/04/30 05:11:40;;;;;;;28.10;17.73;;;6.00;84.90;;;;;;4808240;29;20195;-88
2022/04/30 05:14:06;;;;;;;36.13;17.73;;;6.10;85.20;;;;;;4824740;29;20636;-87
2022/04/30 05:16:32;;;;;;;34.03;21.83;;;6.20;85.30;;;;;;4808256;29;20183;-87
2022/04/30 05:18:57;;;;;;;53.57;33.67;;;6.30;85.50;;;;;;4824375;29;20231;-87
2022/04/30 05:21:24;;;;;;;82.43;53.33;;;6.30;85.50;;;;;;4808247;29;20209;-87
2022/04/30 05:23:50;;;;;;;52.03;35.00;;;6.30;85.30;;;;;;4808120;29;20218;-87
2022/04/30 05:26:15;;;;;;;42.20;31.17;;;6.40;85.50;;;;;;4808082;29;20198;-87
2022/04/30 05:28:41;;;;;;;42.43;33.80;;;6.30;85.70;;;;;;4811405;29;20213;-87
2022/04/30 05:31:07;;;;;;;27.33;19.87;;;6.40;86.00;;;;;;4811294;29;20185;-87
2022/04/30 05:33:35;;;;;;;22.50;18.40;;;6.50;86.20;;;;;;4811406;29;20210;-87
2022/04/30 05:36:01;;;;;;;25.17;17.60;;;6.50;86.10;;;;;;4811306;29;20223;-87
2022/04/30 05:38:27;;;;;;;19.97;16.83;;;6.50;86.30;;;;;;4811510;29;20258;-87
2022/04/30 05:40:52;;;;;;;17.37;13.00;;;6.70;86.40;;;;;;4827413;29;20194;-87
2022/04/30 05:43:18;;;;;;;14.83;11.37;;;6.60;86.30;;;;;;4811678;29;20221;-87
2022/04/30 05:45:43;;;;;;;11.03;8.30;;;6.70;86.40;;;;;;4827981;29;20655;-87
2022/04/30 05:48:09;;;;;;;16.07;8.03;;;6.80;86.70;;;;;;4811907;29;20311;-87
2022/04/30 05:50:35;;;;;;;12.00;7.53;;;7.10;86.90;;;;;;4812012;29;20179;-88
2022/04/30 05:53:00;;;;;;;13.57;8.00;;;7.10;86.70;;;;;;4811138;29;20294;-88
2022/04/30 05:55:26;;;;;;;18.47;8.53;;;7.20;86.70;;;;;;4811869;29;20245;-88
2022/04/30 05:57:51;;;;;;;14.30;7.63;;;7.30;86.60;;;;;;4827238;29;20574;-87
2022/04/30 06:00:17;;;;;;;13.17;8.53;;;7.30;86.60;;;;;;4827575;29;20720;-87
2022/04/30 06:02:43;;;;;;;9.20;8.20;;;7.30;86.70;;;;;;4827582;29;20236;-88
2022/04/30 06:05:09;;;;;;;8.90;7.30;;;7.40;86.60;;;;;;4811096;29;20195;-87
2022/04/30 06:07:35;;;;;;;13.03;8.10;;;7.40;86.40;;;;;;4811624;29;20181;-87
2022/04/30 06:10:00;;;;;;;10.90;7.57;;;7.50;86.40;;;;;;4810848;29;20213;-87
2022/04/30 06:12:26;;;;;;;16.17;7.87;;;7.50;86.30;;;;;;4811160;29;20259;-88
2022/04/30 06:14:51;;;;;;;11.83;7.60;;;7.50;85.90;;;;;;4810823;29;20279;-88
2022/04/30 06:17:17;;;;;;;13.70;8.07;;;7.60;86.10;;;;;;4811077;29;20188;-88
2022/04/30 06:19:42;;;;;;;13.57;7.30;;;7.70;86.00;;;;;;4810870;29;20572;-87
2022/04/30 06:22:08;;;;;;;11.87;6.93;;;7.90;85.80;;;;;;4810956;29;20184;-88
2022/04/30 06:24:33;;;;;;;17.97;8.17;;;8.00;85.80;;;;;;4810802;29;20200;-88
2022/04/30 06:26:59;;;;;;;13.93;7.53;;;8.00;85.40;;;;;;4811038;29;20188;-87
2022/04/30 06:29:24;;;;;;;13.27;7.07;;;8.10;85.40;;;;;;4826849;29;20199;-87
2022/04/30 06:31:51;;;;;;;14.90;7.23;;;8.20;85.30;;;;;;4811117;29;20270;-88
2022/04/30 06:34:17;;;;;;;23.07;9.27;;;8.20;85.20;;;;;;4811190;29;20287;-88
2022/04/30 06:36:42;;;;;;;15.63;7.83;;;8.30;84.60;;;;;;4810483;29;20188;-87
2022/04/30 06:39:08;;;;;;;10.13;7.00;;;8.40;84.60;;;;;;4809673;29;20208;-88
2022/04/30 06:41:33;;;;;;;12.97;6.80;;;8.50;84.40;;;;;;4826749;29;20188;-88
2022/04/30 06:43:59;;;;;;;13.40;7.63;;;8.60;84.10;;;;;;4810736;29;20195;-88
2022/04/30 06:46:24;;;;;;;12.00;6.60;;;8.70;83.80;;;;;;4826753;29;20184;-88
2022/04/30 06:48:50;;;;;;;16.60;7.43;;;8.70;83.00;;;;;;4810375;29;20255;-88
2022/04/30 06:51:16;;;;;;;15.40;7.87;;;8.80;82.80;;;;;;4810283;29;20188;-88
2022/04/30 06:59:12;;;;;;;15.27;7.57;;;9.00;82.50;;;;;;4826950;29;20259;-88
2022/04/30 07:01:44;;;;;;;11.33;7.63;;;9.10;82.00;;;;;;4810402;29;20181;-88
2022/04/30 07:04:11;;;;;;;20.20;6.33;;;9.20;81.10;;;;;;4826449;29;20584;-88
2022/04/30 07:06:37;;;;;;;10.37;6.50;;;9.30;81.00;;;;;;4810168;29;20274;-87
2022/04/30 07:09:05;;;;;;;9.50;5.87;;;9.30;80.30;;;;;;4810026;29;20205;-88
2022/04/30 07:11:30;;;;;;;14.60;6.63;;;9.30;80.40;;;;;;4826505;29;20236;-88
2022/04/30 07:13:56;;;;;;;11.60;5.77;;;9.50;79.90;;;;;;4826407;29;20196;-87
2022/04/30 07:16:22;;;;;;;16.00;6.30;;;9.60;79.50;;;;;;4826209;29;20251;-89
2022/04/30 07:18:48;;;;;;;11.73;6.70;;;9.50;79.40;;;;;;4809342;29;20288;-89
2022/04/30 07:21:14;;;;;;;13.23;6.23;;;9.60;79.20;;;;;;4825806;29;20267;-89
2022/04/30 07:23:40;;;;;;;7.73;5.77;;;9.60;78.30;;;;;;4809379;29;20271;-89
2022/04/30 07:26:05;;;;;;;10.60;5.90;;;9.70;77.90;;;;;;4809418;29;20186;-89
2022/04/30 07:28:35;;;;;;;8.90;6.00;;;9.80;77.90;;;;;;4809624;29;20220;-88
2022/04/30 07:31:04;;;;;;;10.93;5.90;;;9.80;77.40;;;;;;4809700;29;20240;-89
2022/04/30 07:33:29;;;;;;;9.80;6.40;;;9.90;77.10;;;;;;4809209;29;20634;-89
2022/04/30 07:35:55;;;;;;;12.13;5.53;;;10.00;76.50;;;;;;4809988;29;20283;-89
2022/04/30 07:38:21;;;;;;;8.90;5.37;;;10.10;76.10;;;;;;4809210;29;20259;-87
2022/04/30 07:40:47;;;;;;;20.23;6.47;;;10.20;75.30;;;;;;4825936;29;20620;-88
2022/04/30 07:43:12;;;;;;;7.00;5.17;;;10.10;75.60;;;;;;4809476;29;20181;-87
2022/04/30 07:45:38;;;;;;;10.70;6.00;;;10.20;76.00;;;;;;4826294;29;20184;-86
2022/04/30 07:48:04;;;;;;;10.03;5.80;;;10.20;76.50;;;;;;4809321;29;20275;-86
2022/04/30 07:50:35;;;;;;;10.23;6.07;;;10.30;76.60;;;;;;4824991;29;20225;-86
2022/04/30 07:53:02;;;;;;;10.07;5.40;;;10.30;75.70;;;;;;4809225;29;20283;-86
2022/04/30 07:55:28;;;;;;;13.93;6.00;;;10.30;75.70;;;;;;4809343;29;20313;-86
2022/04/30 07:57:53;;;;;;;11.43;6.13;;;10.50;74.80;;;;;;4825313;29;20175;-86
2022/04/30 08:00:19;;;;;;;13.73;6.10;;;10.60;74.10;;;;;;4808847;29;20196;-87
2022/04/30 08:02:47;;;;;;;7.50;6.03;;;10.80;74.60;;;;;;4811389;29;20218;-86
2022/04/30 08:05:12;;;;;;;11.27;6.17;;;10.80;72.60;;;;;;4812040;29;20279;-87
2022/04/30 08:07:38;;;;;;;11.33;6.27;;;10.90;72.70;;;;;;4809533;29;20207;-87
2022/04/30 08:10:04;;;;;;;10.53;6.50;;;10.80;73.00;;;;;;4809241;29;20208;-87
2022/04/30 08:12:30;;;;;;;10.60;6.47;;;10.80;73.80;;;;;;4809198;29;20344;-87
2022/04/30 08:14:55;;;;;;;11.03;7.10;;;10.90;74.40;;;;;;4809029;29;20685;-87
2022/04/30 08:17:21;;;;;;;12.10;6.27;;;10.80;74.90;;;;;;4810551;29;20317;-87
2022/04/30 08:19:47;;;;;;;14.37;6.63;;;10.90;73.80;;;;;;4809133;29;20770;-87
2022/04/30 08:22:13;;;;;;;8.30;5.87;;;11.00;73.00;;;;;;4809290;29;20184;-87
2022/04/30 08:24:39;;;;;;;9.27;5.90;;;10.80;73.20;;;;;;4808774;29;20570;-87
2022/04/30 08:27:05;;;;;;;9.73;6.27;;;10.90;72.60;;;;;;4808681;29;20191;-85
2022/04/30 08:29:30;;;;;;;9.10;5.80;;;10.80;71.90;;;;;;4825029;29;20658;-85
2022/04/30 08:31:56;;;;;;;10.70;6.50;;;10.80;72.50;;;;;;4825086;29;20207;-86
2022/04/30 08:34:22;;;;;;;13.87;6.90;;;10.90;74.10;;;;;;4824834;29;20234;-87
2022/04/30 08:36:48;;;;;;;12.90;6.70;;;10.90;73.40;;;;;;4824709;29;20180;-85
2022/04/30 08:39:13;;;;;;;13.03;6.83;;;10.90;74.30;;;;;;4824491;29;20196;-86
2022/04/30 08:41:42;;;;;;;11.73;6.50;;;10.80;74.60;;;;;;4824399;29;20194;-87
2022/04/30 08:44:12;;;;;;;12.40;7.07;;;10.90;74.20;;;;;;4808338;29;20205;-87
2022/04/30 08:46:39;;;;;;;17.40;6.23;;;11.10;74.20;;;;;;4808699;29;20190;-88
2022/04/30 08:49:06;;;;;;;11.83;6.50;;;11.40;74.00;;;;;;4824501;29;20196;-87
2022/04/30 08:51:31;;;;;;;17.87;6.93;;;11.40;72.60;;;;;;4824735;29;20266;-87
2022/04/30 08:53:57;;;;;;;11.30;6.67;;;11.40;72.70;;;;;;4809283;29;20212;-87
2022/04/30 08:56:23;;;;;;;7.97;6.20;;;11.30;71.40;;;;;;4825005;29;20580;-87
2022/04/30 08:58:48;;;;;;;9.90;7.03;;;11.30;72.10;;;;;;4808459;29;20243;-87
2022/04/30 09:01:14;;;;;;;15.50;8.17;;;11.40;70.90;;;;;;4824371;29;20551;-87
2022/04/30 09:03:39;;;;;;;9.50;6.63;;;11.50;69.80;;;;;;4811401;29;20223;-87
2022/04/30 09:06:06;;;;;;;10.50;6.30;;;11.40;70.60;;;;;;4811586;29;20176;-86
2022/04/30 09:08:32;;;;;;;12.00;5.93;;;11.30;70.70;;;;;;4811256;29;20215;-86
2022/04/30 09:11:07;;;;;;;8.40;6.33;;;11.40;71.10;;;;;;4811223;29;20275;-87
2022/04/30 09:13:41;;;;;;;9.53;6.93;;;11.40;71.20;;;;;;4827806;29;20210;-85
2022/04/30 09:16:20;;;;;;;9.90;6.00;;;11.50;70.80;;;;;;4811807;29;20280;-87
2022/04/30 09:18:46;;;;;;;10.90;6.80;;;11.70;70.70;;;;;;4827144;29;20567;-85
2022/04/30 09:21:17;;;;;;;11.83;6.97;;;11.20;72.40;;;;;;4827084;29;20259;-85
2022/04/30 09:23:43;;;;;;;12.13;7.73;;;11.30;74.40;;;;;;4827198;29;20237;-86
2022/04/30 09:26:10;;;;;;;10.47;6.87;;;11.80;74.20;;;;;;4811048;29;20278;-86
2022/04/30 09:28:37;;;;;;;10.20;6.67;;;11.80;73.20;;;;;;4827010;29;20221;-85
2022/04/30 09:31:07;;;;;;;8.73;6.37;;;11.90;71.90;;;;;;4810580;29;20184;-86
2022/04/30 09:33:38;;;;;;;11.70;5.23;;;12.00;70.30;;;;;;4810652;29;20769;-86
2022/04/30 09:38:53;;;;;;;6.90;5.17;;;12.70;64.70;;;;;;4827342;29;20252;-86
2022/04/30 09:41:24;;;;;;;6.50;4.20;;;13.10;65.20;;;;;;4810771;29;20212;-86
2022/04/30 09:44:06;;;;;;;10.97;4.30;;;13.40;63.40;;;;;;4810711;29;20274;-86
2022/04/30 09:46:37;;;;;;;7.90;4.67;;;13.60;61.30;;;;;;4810515;29;20184;-86
2022/04/30 09:54:39;;;;;;;8.93;5.43;;;13.70;60.70;;;;;;4826830;29;20207;-86
2022/04/30 09:57:07;;;;;;;6.20;4.93;;;13.50;63.80;;;;;;4810428;29;20184;-86
2022/04/30 09:59:35;;;;;;;7.50;4.97;;;13.70;63.90;;;;;;4810394;29;20207;-88
2022/04/30 10:02:05;;;;;;;5.73;4.60;;;13.80;63.20;;;;;;4811115;29;20185;-86
2022/04/30 10:04:33;;;;;;;11.57;3.80;;;13.30;62.90;;;;;;4826980;29;20263;-86
2022/04/30 10:07:01;;;;;;;5.87;4.07;;;13.60;62.50;;;;;;4827585;29;20184;-85
2022/04/30 10:09:30;;;;;;;7.00;4.30;;;13.80;59.30;;;;;;4810805;29;20232;-89
2022/04/30 10:11:56;;;;;;;5.27;4.20;;;13.80;61.50;;;;;;4810667;29;20180;-90
2022/04/30 10:14:41;;;;;;;6.97;3.33;;;14.20;61.70;;;;;;4810007;29;20265;-89
2022/04/30 10:19:35;;;;;;;8.50;4.37;;;14.30;59.90;;;;;;4827997;29;20199;-87
2022/04/30 10:22:28;;;;;;;5.33;4.13;;;14.70;54.90;;;;;;4810877;29;20177;-87
2022/04/30 10:24:58;;;;;;;7.97;4.27;;;14.30;59.60;;;;;;4827881;29;20192;-86
2022/04/30 10:27:36;;;;;;;6.13;4.63;;;14.50;59.20;;;;;;4819164;29;20168;-86
2022/04/30 10:30:02;;;;;;;9.30;4.10;;;14.00;58.00;;;;;;4818174;29;20236;-86
2022/04/30 10:32:34;;;;;;;6.20;3.60;;;13.90;58.00;;;;;;4830699;29;20183;-86
2022/04/30 10:35:01;;;;;;;6.47;3.90;;;14.20;57.90;;;;;;4812662;29;20172;-85
2022/04/30 10:37:45;;;;;;;5.20;3.70;;;14.40;58.00;;;;;;4828618;29;20540;-87
2022/04/30 10:40:11;;;;;;;5.57;3.23;;;14.80;57.80;;;;;;4812348;29;20710;-85
2022/04/30 10:42:41;;;;;;;5.70;3.60;;;15.30;55.30;;;;;;4813769;29;20191;-86
2022/04/30 10:45:11;;;;;;;16.63;4.13;;;14.60;54.20;;;;;;4812402;29;20192;-86
2022/04/30 10:47:48;;;;;;;7.97;4.07;;;15.00;55.80;;;;;;4810944;29;20184;-86
2022/04/30 10:50:13;;;;;;;7.27;4.37;;;15.30;54.00;;;;;;4812312;29;20207;-85
2022/04/30 10:52:41;;;;;;;4.53;3.85;;;15.70;57.00;;;;;;4813277;29;20250;-84
2022/04/30 10:55:07;;;;;;;7.17;3.70;;;15.90;53.60;;;;;;4814109;29;20188;-86
2022/04/30 10:57:43;;;;;;;6.97;3.43;;;15.50;52.50;;;;;;4812534;29;20196;-86
2022/04/30 11:00:10;;;;;;;5.63;3.45;;;15.70;53.60;;;;;;4828392;29;20199;-86
2022/04/30 11:02:35;;;;;;;10.63;4.73;;;15.70;52.00;;;;;;4812533;29;20204;-85
2022/04/30 11:05:01;;;;;;;7.93;3.43;;;14.70;52.70;;;;;;4813589;29;20195;-86
2022/04/30 11:07:28;;;;;;;6.00;3.20;;;15.50;55.80;;;;;;4816733;29;20195;-85
2022/04/30 11:09:55;;;;;;;7.80;3.20;;;15.00;52.70;;;;;;4814669;29;20211;-85
2022/04/30 11:12:20;;;;;;;4.23;3.27;;;15.50;52.50;;;;;;4828540;29;20188;-85
2022/04/30 11:14:47;;;;;;;8.68;2.78;;;16.00;51.70;;;;;;4816733;29;20700;-86
2022/04/30 11:17:12;;;;;;;4.10;3.00;;;16.70;49.10;;;;;;4832040;29;20678;-85
2022/04/30 11:19:42;;;;;;;4.25;2.90;;;16.60;46.90;;;;;;4830179;29;20204;-85
2022/04/30 11:22:09;;;;;;;4.40;3.00;;;16.70;49.20;;;;;;4815238;29;20244;-85
2022/04/30 11:24:37;;;;;;;4.68;2.88;;;16.50;46.90;;;;;;4833062;29;20712;-85
2022/04/30 11:27:05;;;;;;;5.30;2.97;;;15.90;46.70;;;;;;4816723;29;20325;-86
2022/04/30 11:29:32;;;;;;;9.93;4.10;;;15.00;50.10;;;;;;4830647;29;20207;-84
2022/04/30 11:31:59;;;;;;;4.80;2.97;;;15.50;48.80;;;;;;4815011;29;20195;-85
2022/04/30 11:34:25;;;;;;;5.55;2.83;;;14.90;49.90;;;;;;4831488;29;20295;-85
2022/04/30 11:36:58;;;;;;;4.95;2.88;;;15.30;48.30;;;;;;4816621;29;20540;-85
2022/04/30 11:39:25;;;;;;;4.23;2.80;;;14.60;50.80;;;;;;4817001;29;20211;-86
2022/04/30 11:41:52;;;;;;;3.17;2.50;;;14.80;50.00;;;;;;4817812;29;20173;-85
2022/04/30 11:44:30;;;;;;;3.87;2.30;;;15.00;46.60;;;;;;4831255;29;20610;-85
2022/04/30 11:46:55;;;;;;;5.03;2.47;;;14.70;50.10;;;;;;4814682;29;20655;-86
2022/04/30 11:49:23;;;;;;;3.17;2.30;;;15.70;50.80;;;;;;4814927;29;20207;-85
2022/04/30 11:51:50;;;;;;;4.70;2.00;;;16.10;48.10;;;;;;4836301;29;20188;-85
2022/04/30 11:54:19;;;;;;;6.03;2.60;;;15.70;46.70;;;;;;4831464;29;20233;-85
2022/04/30 11:56:46;;;;;;;2.92;2.20;;;16.30;47.50;;;;;;4833876;29;20180;-85
2022/04/30 11:59:12;;;;;;;4.70;2.50;;;15.80;48.10;;;;;;4832621;29;20211;-85
2022/04/30 12:01:39;;;;;;;4.38;2.50;;;16.40;46.50;;;;;;4813040;29;20275;-86
2022/04/30 12:04:11;;;;;;;5.70;2.63;;;16.30;47.20;;;;;;4816283;29;20184;-85
2022/04/30 12:06:39;;;;;;;6.13;2.42;;;15.80;47.80;;;;;;4836662;29;20171;-86
2022/04/30 12:09:19;;;;;;;5.93;2.30;;;15.90;48.80;;;;;;4814716;29;20207;-85
2022/04/30 12:11:53;;;;;;;2.75;2.35;;;16.00;49.20;;;;;;4814590;29;20255;-85
2022/04/30 12:14:19;;;;;;;2.50;2.00;;;15.50;46.70;;;;;;4828019;29;20196;-85
2022/04/30 12:16:47;;;;;;;4.53;1.88;;;15.90;49.60;;;;;;4812640;29;20176;-85
2022/04/30 12:24:57;;;;;;;6.68;2.80;;;16.20;48.30;;;;;;4830422;29;20654;-88
2022/04/30 12:27:23;;;;;;;4.30;2.65;;;16.50;49.50;;;;;;4808825;29;20195;-85
2022/04/30 12:30:20;;;;;;;6.25;2.47;;;16.10;50.80;;;;;;4809635;29;20200;-85
2022/04/30 12:33:00;;;;;;;6.50;2.80;;;15.50;52.10;;;;;;4809954;29;20212;-85
2022/04/30 12:35:28;;;;;;;3.97;2.58;;;15.80;52.30;;;;;;4828253;29;20243;-85
2022/04/30 12:38:02;;;;;;;2.65;2.42;;;16.00;51.20;;;;;;4813333;29;20750;-86
2022/04/30 12:40:28;;;;;;;3.97;2.83;;;16.30;48.50;;;;;;4831764;29;20207;-86
2022/04/30 12:42:53;;;;;;;5.30;2.40;;;16.30;47.70;;;;;;4828402;29;20556;-86
2022/04/30 12:45:19;;;;;;;3.83;2.45;;;16.30;49.00;;;;;;4814932;29;20184;-85
2022/04/30 12:47:44;;;;;;;4.75;2.42;;;16.30;48.20;;;;;;4831374;29;20205;-85
2022/04/30 12:50:10;;;;;;;2.67;2.47;;;15.60;49.70;;;;;;4831820;29;20702;-87
2022/04/30 12:52:36;;;;;;;6.57;3.00;;;15.60;51.50;;;;;;4830286;29;20675;-85
2022/04/30 12:55:01;;;;;;;3.78;2.42;;;15.20;51.70;;;;;;4811823;29;20191;-84
2022/04/30 12:57:27;;;;;;;3.78;2.67;;;15.30;53.70;;;;;;4828161;29;20704;-84
2022/04/30 12:59:53;;;;;;;4.93;3.10;;;14.60;52.20;;;;;;4812463;29;20687;-85
2022/04/30 13:02:22;;;;;;;3.20;2.90;;;14.90;54.30;;;;;;4828033;29;20203;-85
2022/04/30 13:04:51;;;;;;;3.03;2.63;;;14.80;53.60;;;;;;4828973;29;20221;-86
2022/04/30 13:07:18;;;;;;;4.78;3.15;;;15.20;52.90;;;;;;4828318;29;20230;-85
2022/04/30 13:15:12;;;;;;;5.63;3.08;;;15.30;51.10;;;;;;4828117;29;20663;-84
2022/04/30 13:17:38;;;;;;;4.70;3.10;;;15.30;52.00;;;;;;4829147;29;20176;-85
2022/04/30 13:20:05;;;;;;;4.33;2.47;;;15.30;52.00;;;;;;4827525;29;20192;-85
2022/04/30 13:22:31;;;;;;;3.13;2.75;;;15.00;51.90;;;;;;4811908;29;20266;-84
2022/04/30 13:24:56;;;;;;;6.17;2.87;;;15.20;53.90;;;;;;4828132;29;20179;-85
2022/04/30 13:27:22;;;;;;;4.30;2.87;;;14.80;53.30;;;;;;4827906;29;20185;-86
2022/04/30 13:29:47;;;;;;;3.87;2.73;;;15.20;52.20;;;;;;4827198;29;20200;-85
2022/04/30 13:32:13;;;;;;;4.53;2.80;;;15.30;51.40;;;;;;4811593;29;20247;-84
2022/04/30 13:34:38;;;;;;;3.43;2.40;;;15.10;52.50;;;;;;4831903;29;20260;-85